sensor_id;sensor_type;location;lat;lon;timestamp;pressure;altitude;pressure_sealevel;temperature;humidity
65376;BME280;51976;47.332;9.404;2023-06-19T00:00:00;92576.16;;;18.08;65.28
65376;BME280;51976;47.332;9.404;2023-06-19T00:02:25;92579.63;;;18.17;65.07
65376;BME280;51976;47.332;9.404;2023-06-19T00:04:51;92567.97;;;18.41;64.33
65376;BME280;51976;47.332;9.404;2023-06-19T00:07:16;92577.59;;;18.59;63.48
65376;BME280;51976;47.332;9.404;2023-06-19T00:09:42;92578.22;;;18.44;64.16
65376;BME280;51976;47.332;9.404;2023-06-19T00:12:07;92569.25;;;18.43;63.79
65376;BME280;51976;47.332;9.404;2023-06-19T00:14:33;92575.69;;;18.26;64.09
65376;BME280;51976;47.332;9.404;2023-06-19T00:17:01;92577.94;;;18.24;64.50
65376;BME280;51976;47.332;9.404;2023-06-19T00:19:26;92583.44;;;18.37;63.69
65376;BME280;51976;47.332;9.404;2023-06-19T00:21:51;92578.78;;;18.37;63.47
65376;BME280;51976;47.332;9.404;2023-06-19T00:24:22;92583.41;;;18.24;63.75
65376;BME280;51976;47.332;9.404;2023-06-19T00:26:47;92582.63;;;18.36;63.30
65376;BME280;51976;47.332;9.404;2023-06-19T00:29:13;92588.09;;;18.36;63.12
65376;BME280;51976;47.332;9.404;2023-06-19T00:31:39;92592.06;;;18.06;63.79
65376;BME280;51976;47.332;9.404;2023-06-19T00:34:04;92598.44;;;18.10;63.82
65376;BME280;51976;47.332;9.404;2023-06-19T00:36:29;92602.13;;;17.93;64.47
65376;BME280;51976;47.332;9.404;2023-06-19T00:38:55;92601.06;;;17.85;64.68
65376;BME280;51976;47.332;9.404;2023-06-19T00:41:21;92605.19;;;17.91;64.63
65376;BME280;51976;47.332;9.404;2023-06-19T00:43:47;92604.34;;;18.00;64.74
65376;BME280;51976;47.332;9.404;2023-06-19T00:46:13;92608.56;;;17.88;65.05
65376;BME280;51976;47.332;9.404;2023-06-19T00:48:39;92612.50;;;18.00;64.78
65376;BME280;51976;47.332;9.404;2023-06-19T00:51:04;92604.53;;;17.95;64.62
65376;BME280;51976;47.332;9.404;2023-06-19T00:53:30;92612.56;;;17.91;65.20
65376;BME280;51976;47.332;9.404;2023-06-19T00:55:59;92614.84;;;17.89;65.19
65376;BME280;51976;47.332;9.404;2023-06-19T00:58:24;92620.28;;;18.10;64.53
65376;BME280;51976;47.332;9.404;2023-06-19T01:00:50;92628.53;;;18.22;64.12
65376;BME280;51976;47.332;9.404;2023-06-19T01:03:16;92623.81;;;18.31;63.85
65376;BME280;51976;47.332;9.404;2023-06-19T01:05:42;92617.97;;;18.33;63.31
65376;BME280;51976;47.332;9.404;2023-06-19T01:08:34;92617.41;;;18.27;63.04
65376;BME280;51976;47.332;9.404;2023-06-19T01:11:03;92623.88;;;18.02;64.15
65376;BME280;51976;47.332;9.404;2023-06-19T01:13:42;92635.13;;;18.00;64.26
65376;BME280;51976;47.332;9.404;2023-06-19T01:16:10;92626.16;;;18.00;64.70
65376;BME280;51976;47.332;9.404;2023-06-19T01:18:36;92624.59;;;18.11;63.98
65376;BME280;51976;47.332;9.404;2023-06-19T01:21:11;92624.19;;;17.79;64.41
65376;BME280;51976;47.332;9.404;2023-06-19T01:23:37;92618.34;;;17.69;64.32
65376;BME280;51976;47.332;9.404;2023-06-19T01:26:02;92622.81;;;17.73;64.50
65376;BME280;51976;47.332;9.404;2023-06-19T01:28:28;92627.06;;;17.83;64.23
65376;BME280;51976;47.332;9.404;2023-06-19T01:30:54;92630.47;;;18.01;63.44
65376;BME280;51976;47.332;9.404;2023-06-19T01:33:25;92630.72;;;18.08;62.96
65376;BME280;51976;47.332;9.404;2023-06-19T01:35:52;92626.28;;;18.03;62.86
65376;BME280;51976;47.332;9.404;2023-06-19T01:38:19;92631.13;;;17.98;63.20
65376;BME280;51976;47.332;9.404;2023-06-19T01:40:47;92635.28;;;18.04;63.05
65376;BME280;51976;47.332;9.404;2023-06-19T01:43:14;92634.06;;;17.92;63.38
65376;BME280;51976;47.332;9.404;2023-06-19T01:45:41;92644.34;;;17.87;63.64
65376;BME280;51976;47.332;9.404;2023-06-19T01:48:07;92644.56;;;18.03;63.65
65376;BME280;51976;47.332;9.404;2023-06-19T01:50:33;92642.56;;;18.12;63.05
65376;BME280;51976;47.332;9.404;2023-06-19T01:52:58;92644.81;;;18.10;63.14
65376;BME280;51976;47.332;9.404;2023-06-19T01:55:24;92645.63;;;18.10;62.78
65376;BME280;51976;47.332;9.404;2023-06-19T01:57:49;92658.28;;;17.94;63.32
65376;BME280;51976;47.332;9.404;2023-06-19T02:00:15;92655.78;;;17.80;63.84
65376;BME280;51976;47.332;9.404;2023-06-19T02:02:41;92658.41;;;17.77;63.98
65376;BME280;51976;47.332;9.404;2023-06-19T02:05:06;92660.72;;;17.57;64.22
65376;BME280;51976;47.332;9.404;2023-06-19T02:07:32;92665.53;;;17.52;64.58
65376;BME280;51976;47.332;9.404;2023-06-19T02:09:57;92665.63;;;17.73;64.00
65376;BME280;51976;47.332;9.404;2023-06-19T02:12:23;92669.75;;;17.79;63.77
65376;BME280;51976;47.332;9.404;2023-06-19T02:14:48;92663.03;;;17.47;64.44
65376;BME280;51976;47.332;9.404;2023-06-19T02:17:13;92665.28;;;17.45;64.78
65376;BME280;51976;47.332;9.404;2023-06-19T02:19:39;92668.00;;;17.45;64.66
65376;BME280;51976;47.332;9.404;2023-06-19T02:22:05;92669.06;;;17.52;64.55
65376;BME280;51976;47.332;9.404;2023-06-19T02:24:31;92666.03;;;17.54;64.39
65376;BME280;51976;47.332;9.404;2023-06-19T02:26:57;92670.09;;;17.48;64.90
65376;BME280;51976;47.332;9.404;2023-06-19T02:29:22;92677.97;;;17.41;65.17
65376;BME280;51976;47.332;9.404;2023-06-19T02:31:47;92679.41;;;17.38;64.95
65376;BME280;51976;47.332;9.404;2023-06-19T02:34:13;92678.13;;;17.44;64.72
65376;BME280;51976;47.332;9.404;2023-06-19T02:36:39;92677.78;;;17.46;64.89
65376;BME280;51976;47.332;9.404;2023-06-19T02:39:05;92674.84;;;17.51;64.31
65376;BME280;51976;47.332;9.404;2023-06-19T02:41:31;92673.72;;;17.52;63.96
65376;BME280;51976;47.332;9.404;2023-06-19T02:43:57;92676.88;;;17.63;63.76
65376;BME280;51976;47.332;9.404;2023-06-19T02:46:22;92675.28;;;17.70;63.53
65376;BME280;51976;47.332;9.404;2023-06-19T02:48:47;92686.50;;;17.69;63.60
65376;BME280;51976;47.332;9.404;2023-06-19T02:51:13;92690.31;;;17.76;62.88
65376;BME280;51976;47.332;9.404;2023-06-19T02:53:38;92697.69;;;17.76;63.24
65376;BME280;51976;47.332;9.404;2023-06-19T02:56:04;92691.41;;;17.46;63.60
65376;BME280;51976;47.332;9.404;2023-06-19T02:58:30;92690.16;;;17.35;63.91
65376;BME280;51976;47.332;9.404;2023-06-19T03:00:56;92684.91;;;17.30;63.72
65376;BME280;51976;47.332;9.404;2023-06-19T03:03:21;92687.03;;;17.53;63.24
65376;BME280;51976;47.332;9.404;2023-06-19T03:05:48;92696.44;;;17.73;62.56
65376;BME280;51976;47.332;9.404;2023-06-19T03:08:13;92700.94;;;17.69;62.53
65376;BME280;51976;47.332;9.404;2023-06-19T03:10:39;92709.25;;;17.64;62.58
65376;BME280;51976;47.332;9.404;2023-06-19T03:13:04;92714.91;;;17.68;62.84
65376;BME280;51976;47.332;9.404;2023-06-19T03:15:29;92736.78;;;16.95;65.61
65376;BME280;51976;47.332;9.404;2023-06-19T03:17:55;92727.78;;;17.03;64.81
65376;BME280;51976;47.332;9.404;2023-06-19T03:20:20;92737.84;;;17.20;63.98
65376;BME280;51976;47.332;9.404;2023-06-19T03:22:46;92739.22;;;17.35;63.81
65376;BME280;51976;47.332;9.404;2023-06-19T03:25:12;92745.63;;;17.30;63.64
65376;BME280;51976;47.332;9.404;2023-06-19T03:27:37;92744.34;;;17.27;63.99
65376;BME280;51976;47.332;9.404;2023-06-19T03:30:04;92748.50;;;17.34;63.43
65376;BME280;51976;47.332;9.404;2023-06-19T03:32:33;92732.72;;;17.10;63.68
65376;BME280;51976;47.332;9.404;2023-06-19T03:34:59;92757.16;;;17.36;63.18
65376;BME280;51976;47.332;9.404;2023-06-19T03:37:25;92759.16;;;17.65;62.17
65376;BME280;51976;47.332;9.404;2023-06-19T03:39:50;92762.44;;;17.41;61.92
65376;BME280;51976;47.332;9.404;2023-06-19T03:42:15;92767.97;;;17.62;61.57
65376;BME280;51976;47.332;9.404;2023-06-19T03:44:41;92764.19;;;17.83;60.45
65376;BME280;51976;47.332;9.404;2023-06-19T03:47:06;92768.81;;;17.91;60.64
65376;BME280;51976;47.332;9.404;2023-06-19T03:49:32;92778.47;;;17.80;61.04
65376;BME280;51976;47.332;9.404;2023-06-19T03:51:57;92775.34;;;17.70;61.92
65376;BME280;51976;47.332;9.404;2023-06-19T03:54:23;92772.47;;;17.66;62.08
65376;BME280;51976;47.332;9.404;2023-06-19T03:56:48;92772.19;;;17.88;61.78
65376;BME280;51976;47.332;9.404;2023-06-19T03:59:13;92777.00;;;17.91;62.06
65376;BME280;51976;47.332;9.404;2023-06-19T04:01:39;92776.19;;;17.91;62.18
65376;BME280;51976;47.332;9.404;2023-06-19T04:04:05;92772.16;;;17.97;61.75
65376;BME280;51976;47.332;9.404;2023-06-19T04:06:31;92773.00;;;18.18;61.80
65376;BME280;51976;47.332;9.404;2023-06-19T04:08:56;92779.91;;;18.16;61.84
65376;BME280;51976;47.332;9.404;2023-06-19T04:11:22;92783.66;;;18.32;61.35
65376;BME280;51976;47.332;9.404;2023-06-19T04:13:47;92782.59;;;18.45;61.12
65376;BME280;51976;47.332;9.404;2023-06-19T04:16:13;92775.97;;;18.55;61.08
65376;BME280;51976;47.332;9.404;2023-06-19T04:18:38;92787.94;;;18.63;60.63
65376;BME280;51976;47.332;9.404;2023-06-19T04:21:04;92799.25;;;18.52;61.17
65376;BME280;51976;47.332;9.404;2023-06-19T04:23:29;92799.56;;;18.59;61.07
65376;BME280;51976;47.332;9.404;2023-06-19T04:25:54;92794.53;;;18.62;60.75
65376;BME280;51976;47.332;9.404;2023-06-19T04:28:20;92795.81;;;18.64;60.85
65376;BME280;51976;47.332;9.404;2023-06-19T04:30:45;92798.69;;;18.68;60.78
65376;BME280;51976;47.332;9.404;2023-06-19T04:33:11;92807.34;;;18.70;61.21
65376;BME280;51976;47.332;9.404;2023-06-19T04:35:36;92806.34;;;18.74;60.85
65376;BME280;51976;47.332;9.404;2023-06-19T04:38:05;92804.34;;;18.83;62.36
65376;BME280;51976;47.332;9.404;2023-06-19T04:40:31;92810.63;;;18.84;64.07
65376;BME280;51976;47.332;9.404;2023-06-19T04:42:57;92809.94;;;18.87;63.99
65376;BME280;51976;47.332;9.404;2023-06-19T04:45:22;92805.47;;;18.82;64.44
65376;BME280;51976;47.332;9.404;2023-06-19T04:47:48;92810.94;;;18.82;64.69
65376;BME280;51976;47.332;9.404;2023-06-19T04:50:13;92809.00;;;18.83;64.40
65376;BME280;51976;47.332;9.404;2023-06-19T04:52:40;92821.00;;;18.70;64.09
65376;BME280;51976;47.332;9.404;2023-06-19T04:55:06;92817.00;;;18.67;65.20
65376;BME280;51976;47.332;9.404;2023-06-19T04:57:35;92818.72;;;18.72;65.17
65376;BME280;51976;47.332;9.404;2023-06-19T05:00:05;92818.19;;;18.57;65.09
65376;BME280;51976;47.332;9.404;2023-06-19T05:02:35;92813.38;;;18.54;65.72
65376;BME280;51976;47.332;9.404;2023-06-19T05:05:01;92813.38;;;18.54;66.96
65376;BME280;51976;47.332;9.404;2023-06-19T05:07:31;92818.41;;;18.44;67.45
65376;BME280;51976;47.332;9.404;2023-06-19T05:09:56;92821.81;;;18.41;68.47
65376;BME280;51976;47.332;9.404;2023-06-19T05:12:22;92826.00;;;18.38;68.32
65376;BME280;51976;47.332;9.404;2023-06-19T05:14:47;92829.94;;;18.49;68.13
65376;BME280;51976;47.332;9.404;2023-06-19T05:17:13;92832.16;;;18.56;68.84
65376;BME280;51976;47.332;9.404;2023-06-19T05:19:38;92839.34;;;18.60;68.53
65376;BME280;51976;47.332;9.404;2023-06-19T05:22:04;92838.88;;;18.58;68.48
65376;BME280;51976;47.332;9.404;2023-06-19T05:24:29;92842.69;;;18.66;69.12
65376;BME280;51976;47.332;9.404;2023-06-19T05:26:54;92838.31;;;18.74;68.40
65376;BME280;51976;47.332;9.404;2023-06-19T05:29:23;92844.84;;;18.81;67.22
65376;BME280;51976;47.332;9.404;2023-06-19T05:31:48;92854.69;;;18.74;66.39
65376;BME280;51976;47.332;9.404;2023-06-19T05:34:14;92850.13;;;18.57;66.80
65376;BME280;51976;47.332;9.404;2023-06-19T05:36:39;92852.53;;;18.58;66.63
65376;BME280;51976;47.332;9.404;2023-06-19T05:39:05;92852.88;;;18.57;66.56
65376;BME280;51976;47.332;9.404;2023-06-19T05:41:30;92852.34;;;18.64;67.44
65376;BME280;51976;47.332;9.404;2023-06-19T05:43:56;92843.50;;;18.67;69.40
65376;BME280;51976;47.332;9.404;2023-06-19T05:46:21;92841.25;;;18.69;68.96
65376;BME280;51976;47.332;9.404;2023-06-19T05:48:47;92858.97;;;18.83;69.07
65376;BME280;51976;47.332;9.404;2023-06-19T05:51:13;92859.88;;;18.87;68.92
65376;BME280;51976;47.332;9.404;2023-06-19T05:53:39;92853.97;;;18.85;68.24
65376;BME280;51976;47.332;9.404;2023-06-19T05:56:05;92849.66;;;18.84;67.97
65376;BME280;51976;47.332;9.404;2023-06-19T05:58:31;92868.22;;;18.91;67.63
65376;BME280;51976;47.332;9.404;2023-06-19T06:00:56;92867.16;;;19.04;67.36
65376;BME280;51976;47.332;9.404;2023-06-19T06:03:24;92862.41;;;18.92;67.49
65376;BME280;51976;47.332;9.404;2023-06-19T06:05:50;92862.97;;;18.86;67.77
65376;BME280;51976;47.332;9.404;2023-06-19T06:08:16;92859.88;;;18.87;67.41
65376;BME280;51976;47.332;9.404;2023-06-19T06:10:41;92858.78;;;19.09;67.35
65376;BME280;51976;47.332;9.404;2023-06-19T06:13:07;92856.28;;;18.96;68.28
65376;BME280;51976;47.332;9.404;2023-06-19T06:15:33;92851.16;;;19.15;67.02
65376;BME280;51976;47.332;9.404;2023-06-19T06:17:59;92858.88;;;19.34;66.51
65376;BME280;51976;47.332;9.404;2023-06-19T06:20:24;92853.34;;;19.21;66.80
65376;BME280;51976;47.332;9.404;2023-06-19T06:22:50;92841.75;;;19.24;66.88
65376;BME280;51976;47.332;9.404;2023-06-19T06:25:15;92844.50;;;19.57;65.86
65376;BME280;51976;47.332;9.404;2023-06-19T06:27:41;92847.19;;;19.78;64.91
65376;BME280;51976;47.332;9.404;2023-06-19T06:30:07;92836.28;;;19.90;64.95
65376;BME280;51976;47.332;9.404;2023-06-19T06:32:33;92831.72;;;19.94;64.78
65376;BME280;51976;47.332;9.404;2023-06-19T06:34:59;92830.00;;;20.02;63.95
65376;BME280;51976;47.332;9.404;2023-06-19T06:37:25;92819.75;;;20.23;63.20
65376;BME280;51976;47.332;9.404;2023-06-19T06:39:51;92817.94;;;21.04;60.74
65376;BME280;51976;47.332;9.404;2023-06-19T06:42:17;92819.63;;;21.49;59.68
65376;BME280;51976;47.332;9.404;2023-06-19T06:44:44;92816.63;;;21.54;59.27
65376;BME280;51976;47.332;9.404;2023-06-19T06:47:11;92798.91;;;21.51;59.25
65376;BME280;51976;47.332;9.404;2023-06-19T06:49:37;92806.16;;;21.87;58.33
65376;BME280;51976;47.332;9.404;2023-06-19T06:52:05;92792.31;;;21.68;58.90
65376;BME280;51976;47.332;9.404;2023-06-19T06:54:31;92788.56;;;21.45;59.07
65376;BME280;51976;47.332;9.404;2023-06-19T06:56:56;92779.63;;;21.20;60.07
65376;BME280;51976;47.332;9.404;2023-06-19T06:59:24;92781.31;;;21.68;59.11
65376;BME280;51976;47.332;9.404;2023-06-19T07:01:50;92770.34;;;21.68;58.32
65376;BME280;51976;47.332;9.404;2023-06-19T07:04:15;92776.63;;;21.69;58.23
65376;BME280;51976;47.332;9.404;2023-06-19T07:06:41;92774.53;;;22.25;56.75
65376;BME280;51976;47.332;9.404;2023-06-19T07:09:07;92769.22;;;22.32;56.27
65376;BME280;51976;47.332;9.404;2023-06-19T07:11:33;92762.06;;;22.27;55.25
65376;BME280;51976;47.332;9.404;2023-06-19T07:13:58;92766.47;;;22.16;55.39
65376;BME280;51976;47.332;9.404;2023-06-19T07:16:23;92752.41;;;22.18;55.48
65376;BME280;51976;47.332;9.404;2023-06-19T07:18:49;92741.72;;;22.13;54.41
65376;BME280;51976;47.332;9.404;2023-06-19T07:21:14;92744.28;;;22.06;54.17
65376;BME280;51976;47.332;9.404;2023-06-19T07:23:41;92741.41;;;22.18;54.14
65376;BME280;51976;47.332;9.404;2023-06-19T07:26:09;92742.22;;;22.18;55.71
65376;BME280;51976;47.332;9.404;2023-06-19T07:28:35;92744.97;;;22.18;55.50
65376;BME280;51976;47.332;9.404;2023-06-19T07:31:02;92747.03;;;22.06;56.58
65376;BME280;51976;47.332;9.404;2023-06-19T07:33:28;92750.09;;;21.88;57.96
65376;BME280;51976;47.332;9.404;2023-06-19T07:35:55;92746.19;;;21.58;58.29
65376;BME280;51976;47.332;9.404;2023-06-19T07:38:20;92742.13;;;21.83;57.23
65376;BME280;51976;47.332;9.404;2023-06-19T07:40:46;92734.88;;;22.07;56.59
65376;BME280;51976;47.332;9.404;2023-06-19T07:43:11;92740.75;;;22.05;56.94
65376;BME280;51976;47.332;9.404;2023-06-19T07:45:39;92731.44;;;22.10;56.89
65376;BME280;51976;47.332;9.404;2023-06-19T07:48:04;92735.22;;;21.89;57.20
65376;BME280;51976;47.332;9.404;2023-06-19T07:50:30;92732.91;;;22.39;56.57
65376;BME280;51976;47.332;9.404;2023-06-19T07:52:57;92728.16;;;22.74;55.70
65376;BME280;51976;47.332;9.404;2023-06-19T07:55:23;92717.59;;;22.76;55.93
65376;BME280;51976;47.332;9.404;2023-06-19T07:57:48;92708.34;;;22.65;55.54
65376;BME280;51976;47.332;9.404;2023-06-19T08:00:14;92716.38;;;22.74;55.38
65376;BME280;51976;47.332;9.404;2023-06-19T08:02:40;92711.28;;;22.91;55.12
65376;BME280;51976;47.332;9.404;2023-06-19T08:05:07;92699.34;;;22.84;55.12
65376;BME280;51976;47.332;9.404;2023-06-19T08:07:34;92701.22;;;22.80;55.56
65376;BME280;51976;47.332;9.404;2023-06-19T08:09:59;92697.03;;;22.86;55.27
65376;BME280;51976;47.332;9.404;2023-06-19T08:12:25;92678.91;;;23.23;54.26
65376;BME280;51976;47.332;9.404;2023-06-19T08:14:51;92686.53;;;23.53;54.17
65376;BME280;51976;47.332;9.404;2023-06-19T08:17:17;92683.91;;;23.60;53.24
65376;BME280;51976;47.332;9.404;2023-06-19T08:19:42;92684.56;;;23.53;53.75
65376;BME280;51976;47.332;9.404;2023-06-19T08:22:08;92683.66;;;23.91;52.33
65376;BME280;51976;47.332;9.404;2023-06-19T08:24:35;92683.53;;;24.11;52.20
65376;BME280;51976;47.332;9.404;2023-06-19T08:27:05;92684.66;;;24.29;51.15
65376;BME280;51976;47.332;9.404;2023-06-19T08:29:30;92679.81;;;24.49;51.08
65376;BME280;51976;47.332;9.404;2023-06-19T08:31:56;92670.22;;;24.39;50.58
65376;BME280;51976;47.332;9.404;2023-06-19T08:34:21;92680.41;;;24.65;49.50
65376;BME280;51976;47.332;9.404;2023-06-19T08:36:47;92673.97;;;24.54;49.06
65376;BME280;51976;47.332;9.404;2023-06-19T08:39:12;92654.91;;;24.42;48.85
65376;BME280;51976;47.332;9.404;2023-06-19T08:41:38;92663.38;;;24.89;48.86
65376;BME280;51976;47.332;9.404;2023-06-19T08:44:07;92666.03;;;24.79;49.07
65376;BME280;51976;47.332;9.404;2023-06-19T08:46:34;92670.13;;;24.62;48.74
65376;BME280;51976;47.332;9.404;2023-06-19T08:49:03;92656.59;;;24.50;47.81
65376;BME280;51976;47.332;9.404;2023-06-19T08:51:31;92660.78;;;24.40;48.25
65376;BME280;51976;47.332;9.404;2023-06-19T08:54:02;92661.22;;;24.42;46.35
65376;BME280;51976;47.332;9.404;2023-06-19T08:56:32;92654.16;;;24.45;47.28
65376;BME280;51976;47.332;9.404;2023-06-19T08:59:09;92655.28;;;24.70;46.54
65376;BME280;51976;47.332;9.404;2023-06-19T09:01:35;92665.88;;;24.38;44.90
65376;BME280;51976;47.332;9.404;2023-06-19T09:04:11;92655.06;;;24.52;46.03
65376;BME280;51976;47.332;9.404;2023-06-19T09:06:51;92664.19;;;24.56;45.94
65376;BME280;51976;47.332;9.404;2023-06-19T09:09:18;92670.44;;;24.53;44.11
65376;BME280;51976;47.332;9.404;2023-06-19T09:12:05;92675.31;;;24.67;44.53
65376;BME280;51976;47.332;9.404;2023-06-19T09:14:38;92667.13;;;25.01;43.60
65376;BME280;51976;47.332;9.404;2023-06-19T09:17:06;92675.56;;;24.85;44.14
65376;BME280;51976;47.332;9.404;2023-06-19T09:19:33;92670.38;;;24.80;43.52
65376;BME280;51976;47.332;9.404;2023-06-19T09:22:03;92680.53;;;25.02;43.77
65376;BME280;51976;47.332;9.404;2023-06-19T09:24:35;92677.25;;;25.26;43.22
65376;BME280;51976;47.332;9.404;2023-06-19T09:27:12;92677.78;;;25.02;43.16
65376;BME280;51976;47.332;9.404;2023-06-19T09:29:40;92671.69;;;25.23;43.01
65376;BME280;51976;47.332;9.404;2023-06-19T09:32:22;92671.16;;;25.44;42.69
65376;BME280;51976;47.332;9.404;2023-06-19T09:34:50;92678.50;;;25.33;42.89
65376;BME280;51976;47.332;9.404;2023-06-19T09:37:22;92674.56;;;25.34;42.34
65376;BME280;51976;47.332;9.404;2023-06-19T09:39:52;92666.13;;;25.16;42.75
65376;BME280;51976;47.332;9.404;2023-06-19T09:42:26;92667.44;;;25.29;42.06
65376;BME280;51976;47.332;9.404;2023-06-19T09:44:55;92670.34;;;25.43;42.21
65376;BME280;51976;47.332;9.404;2023-06-19T09:47:25;92665.22;;;25.82;41.65
65376;BME280;51976;47.332;9.404;2023-06-19T09:49:56;92675.25;;;26.05;41.14
65376;BME280;51976;47.332;9.404;2023-06-19T09:52:23;92681.25;;;26.14;40.10
65376;BME280;51976;47.332;9.404;2023-06-19T09:54:52;92671.88;;;26.25;46.65
65376;BME280;51976;47.332;9.404;2023-06-19T09:57:18;92677.34;;;25.74;50.57
65376;BME280;51976;47.332;9.404;2023-06-19T09:59:54;92675.16;;;25.53;50.03
65376;BME280;51976;47.332;9.404;2023-06-19T10:02:22;92683.94;;;25.62;51.00
65376;BME280;51976;47.332;9.404;2023-06-19T10:04:52;92680.91;;;25.75;50.69
65376;BME280;51976;47.332;9.404;2023-06-19T10:07:23;92683.16;;;25.62;50.62
65376;BME280;51976;47.332;9.404;2023-06-19T10:09:56;92683.16;;;25.62;50.76
65376;BME280;51976;47.332;9.404;2023-06-19T10:12:21;92686.66;;;26.00;49.35
65376;BME280;51976;47.332;9.404;2023-06-19T10:14:47;92686.25;;;25.98;49.67
65376;BME280;51976;47.332;9.404;2023-06-19T10:17:17;92688.31;;;25.63;50.48
65376;BME280;51976;47.332;9.404;2023-06-19T10:19:50;92676.34;;;25.52;50.74
65376;BME280;51976;47.332;9.404;2023-06-19T10:22:21;92677.06;;;25.46;50.59
65376;BME280;51976;47.332;9.404;2023-06-19T10:24:49;92673.53;;;25.49;50.06
65376;BME280;51976;47.332;9.404;2023-06-19T10:27:20;92683.72;;;25.78;48.85
65376;BME280;51976;47.332;9.404;2023-06-19T10:29:52;92671.50;;;25.79;49.06
65376;BME280;51976;47.332;9.404;2023-06-19T10:32:17;92672.03;;;25.55;48.70
65376;BME280;51976;47.332;9.404;2023-06-19T10:34:46;92670.63;;;25.72;48.87
65376;BME280;51976;47.332;9.404;2023-06-19T10:37:17;92667.81;;;25.65;49.41
65376;BME280;51976;47.332;9.404;2023-06-19T10:39:43;92664.84;;;25.47;49.73
65376;BME280;51976;47.332;9.404;2023-06-19T10:42:09;92663.78;;;25.21;48.74
65376;BME280;51976;47.332;9.404;2023-06-19T10:44:35;92655.03;;;25.90;48.01
65376;BME280;51976;47.332;9.404;2023-06-19T10:47:02;92661.63;;;25.78;46.98
65376;BME280;51976;47.332;9.404;2023-06-19T10:49:27;92666.00;;;25.83;46.27
65376;BME280;51976;47.332;9.404;2023-06-19T10:51:53;92661.75;;;25.52;46.82
65376;BME280;51976;47.332;9.404;2023-06-19T10:54:24;92656.44;;;25.73;46.42
65376;BME280;51976;47.332;9.404;2023-06-19T10:56:50;92662.84;;;25.84;46.49
65376;BME280;51976;47.332;9.404;2023-06-19T10:59:16;92662.53;;;25.93;46.88
65376;BME280;51976;47.332;9.404;2023-06-19T11:01:45;92655.16;;;26.08;46.12
65376;BME280;51976;47.332;9.404;2023-06-19T11:04:12;92652.38;;;26.08;47.06
65376;BME280;51976;47.332;9.404;2023-06-19T11:06:40;92650.81;;;26.10;46.26
65376;BME280;51976;47.332;9.404;2023-06-19T11:09:07;92650.50;;;26.19;46.56
65376;BME280;51976;47.332;9.404;2023-06-19T11:11:43;92655.06;;;25.93;45.97
65376;BME280;51976;47.332;9.404;2023-06-19T11:14:10;92643.03;;;26.26;45.78
65376;BME280;51976;47.332;9.404;2023-06-19T11:16:38;92633.94;;;26.19;44.97
65376;BME280;51976;47.332;9.404;2023-06-19T11:19:06;92639.34;;;26.05;44.42
65376;BME280;51976;47.332;9.404;2023-06-19T11:21:34;92636.66;;;26.15;44.57
65376;BME280;51976;47.332;9.404;2023-06-19T11:24:00;92635.91;;;25.67;45.27
65376;BME280;51976;47.332;9.404;2023-06-19T11:26:26;92632.53;;;25.91;44.85
65376;BME280;51976;47.332;9.404;2023-06-19T11:28:52;92631.75;;;26.46;44.26
65376;BME280;51976;47.332;9.404;2023-06-19T11:31:17;92635.47;;;26.75;43.94
65376;BME280;51976;47.332;9.404;2023-06-19T11:33:56;92634.03;;;27.09;43.51
65376;BME280;51976;47.332;9.404;2023-06-19T11:36:23;92629.19;;;26.92;43.87
65376;BME280;51976;47.332;9.404;2023-06-19T11:38:51;92623.50;;;27.72;42.63
65376;BME280;51976;47.332;9.404;2023-06-19T11:41:25;92633.13;;;26.80;44.23
65376;BME280;51976;47.332;9.404;2023-06-19T11:43:58;92631.78;;;26.49;44.32
65376;BME280;51976;47.332;9.404;2023-06-19T11:46:28;92631.88;;;26.71;43.82
65376;BME280;51976;47.332;9.404;2023-06-19T11:48:55;92627.94;;;26.72;44.06
65376;BME280;51976;47.332;9.404;2023-06-19T11:51:21;92635.00;;;26.66;43.80
65376;BME280;51976;47.332;9.404;2023-06-19T11:53:47;92621.63;;;26.82;43.11
65376;BME280;51976;47.332;9.404;2023-06-19T11:56:12;92612.94;;;26.83;43.42
65376;BME280;51976;47.332;9.404;2023-06-19T11:58:38;92616.03;;;26.64;43.92
65376;BME280;51976;47.332;9.404;2023-06-19T12:01:03;92616.03;;;26.60;44.51
65376;BME280;51976;47.332;9.404;2023-06-19T12:03:29;92612.69;;;26.30;44.44
65376;BME280;51976;47.332;9.404;2023-06-19T12:05:54;92615.78;;;26.21;44.68
65376;BME280;51976;47.332;9.404;2023-06-19T12:08:20;92619.03;;;26.34;44.62
65376;BME280;51976;47.332;9.404;2023-06-19T12:10:45;92610.66;;;26.20;45.02
65376;BME280;51976;47.332;9.404;2023-06-19T12:13:10;92613.81;;;26.22;44.95
65376;BME280;51976;47.332;9.404;2023-06-19T12:15:36;92611.19;;;26.43;44.65
65376;BME280;51976;47.332;9.404;2023-06-19T12:18:01;92606.13;;;26.52;44.47
65376;BME280;51976;47.332;9.404;2023-06-19T12:20:28;92606.06;;;26.42;44.96
65376;BME280;51976;47.332;9.404;2023-06-19T12:22:54;92621.06;;;26.41;44.34
65376;BME280;51976;47.332;9.404;2023-06-19T12:25:20;92605.38;;;26.66;43.48
65376;BME280;51976;47.332;9.404;2023-06-19T12:27:45;92594.78;;;26.79;43.70
65376;BME280;51976;47.332;9.404;2023-06-19T12:30:11;92594.78;;;26.79;43.34
65376;BME280;51976;47.332;9.404;2023-06-19T12:32:37;92599.56;;;26.92;43.30
65376;BME280;51976;47.332;9.404;2023-06-19T12:35:02;92581.84;;;26.21;43.75
65376;BME280;51976;47.332;9.404;2023-06-19T12:37:28;92596.03;;;26.19;44.05
65376;BME280;51976;47.332;9.404;2023-06-19T12:39:53;92593.31;;;26.23;44.37
65376;BME280;51976;47.332;9.404;2023-06-19T12:42:19;92583.50;;;26.33;44.21
65376;BME280;51976;47.332;9.404;2023-06-19T12:44:44;92596.59;;;26.43;44.16
65376;BME280;51976;47.332;9.404;2023-06-19T12:47:10;92599.09;;;26.07;44.62
65376;BME280;51976;47.332;9.404;2023-06-19T12:49:36;92599.22;;;26.28;44.21
65376;BME280;51976;47.332;9.404;2023-06-19T12:52:02;92592.19;;;26.35;44.06
65376;BME280;51976;47.332;9.404;2023-06-19T12:54:28;92598.53;;;26.39;44.14
65376;BME280;51976;47.332;9.404;2023-06-19T12:56:53;92591.78;;;26.33;42.52